Time;durP1;ratioP1;P1;durP2;ratioP2;P2;SDS_P1;SDS_P2;PMS_P1;PMS_P2;Temp;Humidity;BMP_temperature;BMP_pressure;BME280_temperature;BME280_humidity;BME280_pressure;Samples;Min_cycle;Max_cycle;Signal;HPM_P1;HPM_P2
2022/04/15 00:00:06;;;;;;;3.93;1.50;;;17.30;79.30;;;;;;2012714;28;20195;-73
2022/04/15 00:01:04;;;;;;;3.17;1.90;;;17.30;79.30;;;;;;2011618;28;20189;-73
2022/04/15 00:02:03;;;;;;;3.90;1.93;;;17.30;79.30;;;;;;2011858;28;20494;-73
2022/04/15 00:03:05;;;;;;;2.55;1.95;;;17.30;79.30;;;;;;2012291;28;20504;-72
2022/04/15 00:04:04;;;;;;;6.15;2.45;;;17.30;79.20;;;;;;2012404;28;20633;-72
2022/04/15 00:05:29;;;;;;;4.47;2.27;;;17.30;79.30;;;;;;2012275;28;20227;-72
2022/04/15 00:06:24;;;;;;;3.42;2.20;;;17.30;79.30;;;;;;2012206;28;20423;-73
2022/04/15 00:07:24;;;;;;;2.80;1.90;;;17.30;79.30;;;;;;2012324;28;20169;-73
2022/04/15 00:08:22;;;;;;;3.60;2.00;;;17.20;79.20;;;;;;2012421;28;20164;-72
2022/04/15 00:09:21;;;;;;;2.17;1.90;;;17.30;79.30;;;;;;2012533;28;20234;-73
2022/04/15 00:10:19;;;;;;;4.47;2.10;;;17.30;79.30;;;;;;2012210;28;20270;-72
2022/04/15 00:11:18;;;;;;;4.93;2.00;;;17.30;79.20;;;;;;2012396;28;20164;-72
2022/04/15 00:12:28;;;;;;;5.13;2.30;;;17.30;79.20;;;;;;2012460;28;20664;-73
2022/04/15 00:13:29;;;;;;;2.83;1.67;;;17.30;79.20;;;;;;2011679;28;20176;-73
2022/04/15 00:14:29;;;;;;;9.07;2.77;;;17.30;79.30;;;;;;2011677;28;20502;-72
2022/04/15 00:15:28;;;;;;;5.15;2.00;;;17.20;79.10;;;;;;2011758;28;20902;-72
2022/04/15 00:16:26;;;;;;;3.33;2.00;;;17.20;79.20;;;;;;2013416;28;20215;-73
2022/04/15 00:17:25;;;;;;;4.47;2.17;;;17.20;79.10;;;;;;2013965;28;20179;-72
2022/04/15 00:18:24;;;;;;;2.63;1.97;;;17.30;79.10;;;;;;2013973;28;20180;-73
2022/04/15 00:19:23;;;;;;;2.28;1.88;;;17.20;79.10;;;;;;2013928;28;20169;-72
2022/04/15 00:20:22;;;;;;;2.23;1.83;;;17.20;79.10;;;;;;2013892;28;20263;-72
2022/04/15 00:21:20;;;;;;;4.60;2.20;;;17.20;79.10;;;;;;2013821;28;20179;-74
2022/04/15 00:22:19;;;;;;;2.67;1.80;;;17.30;79.20;;;;;;2014092;28;20644;-72
2022/04/15 00:23:18;;;;;;;4.10;2.20;;;17.20;79.10;;;;;;2013758;28;20521;-72
2022/04/15 00:24:16;;;;;;;4.53;2.10;;;17.20;79.10;;;;;;2013775;28;20339;-73
2022/04/15 00:25:15;;;;;;;7.30;1.93;;;17.30;79.20;;;;;;2013938;28;20251;-73
2022/04/15 00:26:13;;;;;;;5.00;1.90;;;17.30;79.10;;;;;;2013845;28;20176;-73
2022/04/15 00:27:13;;;;;;;3.80;1.90;;;17.20;79.00;;;;;;2016259;28;20280;-73
2022/04/15 00:28:11;;;;;;;6.40;2.95;;;17.20;79.00;;;;;;2018565;28;20191;-73
2022/04/15 00:29:10;;;;;;;3.60;2.20;;;17.20;79.00;;;;;;2021305;28;20184;-73
2022/04/15 00:30:10;;;;;;;4.63;1.97;;;17.20;78.90;;;;;;2021337;28;20184;-73
2022/04/15 00:31:09;;;;;;;2.30;1.87;;;17.30;79.00;;;;;;2010244;28;20664;-73
2022/04/15 00:32:08;;;;;;;3.77;2.07;;;17.20;79.00;;;;;;2009063;28;20630;-72
2022/04/15 00:33:06;;;;;;;4.73;2.03;;;17.30;79.00;;;;;;2015995;28;20180;-73
2022/04/15 00:34:05;;;;;;;2.27;1.90;;;17.20;79.00;;;;;;2016386;28;20180;-72
2022/04/15 00:35:04;;;;;;;3.17;2.10;;;17.20;79.00;;;;;;2015627;28;20172;-72
2022/04/15 00:36:03;;;;;;;3.45;1.80;;;17.30;79.00;;;;;;2014174;28;20269;-74
2022/04/15 00:37:02;;;;;;;2.17;1.97;;;17.20;79.00;;;;;;2014006;28;20414;-72
2022/04/15 00:38:00;;;;;;;5.00;1.73;;;17.20;79.10;;;;;;2013708;28;20636;-72
2022/04/15 00:38:59;;;;;;;10.00;2.43;;;17.20;79.10;;;;;;2013833;28;20183;-73
2022/04/15 00:39:58;;;;;;;6.30;2.20;;;17.30;79.10;;;;;;2013685;28;20504;-72
2022/04/15 00:40:57;;;;;;;1.97;1.57;;;17.20;79.00;;;;;;2013739;28;20168;-73
2022/04/15 00:41:57;;;;;;;2.77;1.60;;;17.20;79.00;;;;;;2013812;28;20444;-72
2022/04/15 00:42:56;;;;;;;3.17;1.90;;;17.20;79.00;;;;;;2013757;28;20564;-72
2022/04/15 00:43:55;;;;;;;5.43;1.83;;;17.20;79.00;;;;;;2013689;28;20191;-75
2022/04/15 00:44:58;;;;;;;4.43;1.90;;;17.20;79.00;;;;;;2013662;28;20175;-74
2022/04/15 00:46:13;;;;;;;3.90;2.20;;;17.20;79.00;;;;;;2012715;28;20261;-74
2022/04/15 00:47:20;;;;;;;5.28;1.70;;;17.20;79.00;;;;;;2013237;28;20399;-72
2022/04/15 00:48:19;;;;;;;3.67;1.92;;;17.20;79.00;;;;;;2012946;28;20179;-72
2022/04/15 00:49:18;;;;;;;3.60;1.80;;;17.20;79.10;;;;;;2012961;28;20207;-74
2022/04/15 00:50:17;;;;;;;6.90;2.33;;;17.20;79.00;;;;;;2013582;28;20262;-73
2022/04/15 00:51:16;;;;;;;3.05;1.90;;;17.20;79.00;;;;;;2013528;28;20259;-74
2022/04/15 00:52:17;;;;;;;2.80;1.60;;;17.20;79.10;;;;;;2013521;28;20180;-73
2022/04/15 00:53:23;;;;;;;2.50;2.08;;;17.20;79.00;;;;;;2013063;28;20173;-74
2022/04/15 00:54:28;;;;;;;2.47;2.17;;;17.20;79.10;;;;;;2012904;28;20683;-73
2022/04/15 00:55:27;;;;;;;2.53;1.70;;;17.20;79.10;;;;;;2013532;28;20550;-72
2022/04/15 00:56:29;;;;;;;4.00;1.85;;;17.20;79.00;;;;;;2013505;28;20196;-72
2022/04/15 00:57:30;;;;;;;2.65;1.67;;;17.20;79.00;;;;;;2013622;28;20683;-72
2022/04/15 00:58:32;;;;;;;2.83;2.08;;;17.20;79.00;;;;;;2013502;28;20175;-73
2022/04/15 00:59:33;;;;;;;2.35;1.55;;;17.20;79.10;;;;;;2013644;28;20207;-73
2022/04/15 01:00:34;;;;;;;3.58;1.85;;;17.30;79.10;;;;;;2013551;28;20180;-73
2022/04/15 01:01:33;;;;;;;3.22;2.08;;;17.20;79.00;;;;;;2013449;28;20172;-73
2022/04/15 01:02:33;;;;;;;3.10;1.80;;;17.20;79.10;;;;;;2013653;28;20191;-74
2022/04/15 01:03:33;;;;;;;2.85;2.08;;;17.20;79.00;;;;;;2013543;28;20511;-73
2022/04/15 01:04:32;;;;;;;3.70;1.95;;;17.20;79.00;;;;;;2013464;28;20176;-73
2022/04/15 01:05:30;;;;;;;3.80;2.33;;;17.20;79.00;;;;;;2013791;28;20176;-73
2022/04/15 01:06:31;;;;;;;5.23;2.20;;;17.20;79.00;;;;;;2013527;28;20171;-73
2022/04/15 01:07:33;;;;;;;3.05;2.00;;;17.20;79.00;;;;;;2013518;28;20168;-73
2022/04/15 01:08:33;;;;;;;2.30;1.60;;;17.20;79.00;;;;;;2013604;28;20603;-72
2022/04/15 01:09:33;;;;;;;3.38;2.00;;;17.20;79.00;;;;;;2013363;28;20216;-73
2022/04/15 01:10:35;;;;;;;4.10;1.90;;;17.20;79.00;;;;;;2012957;28;20225;-73
2022/04/15 01:11:34;;;;;;;3.60;1.55;;;17.20;79.00;;;;;;2013061;28;20403;-72
2022/04/15 01:12:36;;;;;;;3.57;2.43;;;17.20;79.00;;;;;;2013537;28;20687;-72
2022/04/15 01:13:36;;;;;;;4.30;1.77;;;17.20;78.90;;;;;;2013554;28;20465;-72
2022/04/15 01:14:36;;;;;;;2.80;1.63;;;17.20;78.90;;;;;;2012694;28;21031;-73
2022/04/15 01:15:35;;;;;;;3.83;2.22;;;17.20;78.90;;;;;;2012858;28;20263;-73
2022/04/15 01:16:33;;;;;;;2.43;1.70;;;17.20;79.00;;;;;;2013444;28;20581;-72
2022/04/15 01:17:35;;;;;;;3.20;2.03;;;17.20;79.00;;;;;;2013364;28;20169;-73
2022/04/15 01:18:34;;;;;;;3.67;1.97;;;17.20;79.00;;;;;;2013406;28;20177;-73
2022/04/15 01:19:32;;;;;;;2.13;1.60;;;17.20;79.00;;;;;;2013370;28;20408;-73
2022/04/15 01:20:32;;;;;;;2.27;2.00;;;17.20;79.00;;;;;;2012724;28;20554;-73
2022/04/15 01:21:31;;;;;;;;;;;17.20;79.00;;;;;;2013032;28;20254;-73
2022/04/15 01:22:41;;;;;;;4.18;2.00;;;17.20;78.90;;;;;;2013333;28;20038;-74
2022/04/15 01:23:40;;;;;;;4.03;2.00;;;17.20;78.90;;;;;;2013283;28;20165;-73
2022/04/15 01:24:39;;;;;;;3.40;1.75;;;17.20;79.00;;;;;;2013354;28;20180;-72
2022/04/15 01:25:38;;;;;;;2.80;1.77;;;17.20;78.90;;;;;;2013402;28;20520;-72
2022/04/15 01:26:39;;;;;;;2.90;1.93;;;17.20;79.00;;;;;;2012973;28;20189;-72
2022/04/15 01:27:48;;;;;;;2.75;1.75;;;17.20;78.90;;;;;;2013335;28;20457;-73
2022/04/15 01:28:46;;;;;;;2.65;2.28;;;17.20;78.90;;;;;;2013343;28;20176;-72
2022/04/15 01:29:45;;;;;;;2.90;1.50;;;17.20;78.90;;;;;;2013285;28;20215;-72
2022/04/15 01:30:45;;;;;;;3.30;1.87;;;17.20;79.00;;;;;;2013285;28;20225;-73
2022/04/15 01:31:43;;;;;;;5.30;2.30;;;17.20;78.90;;;;;;2013201;28;20607;-72
2022/04/15 01:32:44;;;;;;;3.57;2.13;;;17.20;78.90;;;;;;2012769;28;20435;-72
2022/04/15 01:33:42;;;;;;;4.53;1.63;;;17.20;78.90;;;;;;2012626;28;20168;-73
2022/04/15 01:34:41;;;;;;;2.50;1.90;;;17.20;79.00;;;;;;2013202;28;20410;-73
2022/04/15 01:35:39;;;;;;;1.80;1.70;;;17.20;78.90;;;;;;2013413;28;20183;-73
2022/04/15 01:36:38;;;;;;;4.20;1.70;;;17.20;78.90;;;;;;2013227;28;20253;-74
2022/04/15 01:37:37;;;;;;;2.93;2.13;;;17.20;79.00;;;;;;2013262;28;20184;-72
2022/04/15 01:38:36;;;;;;;5.00;2.10;;;17.20;78.90;;;;;;2013290;28;20172;-74
2022/04/15 01:39:37;;;;;;;2.87;1.60;;;17.20;78.90;;;;;;2013275;28;20606;-72
2022/04/15 01:40:35;;;;;;;2.30;2.10;;;17.20;78.90;;;;;;2013157;28;20177;-73
2022/04/15 01:41:38;;;;;;;3.23;1.97;;;17.20;78.90;;;;;;2013297;28;20413;-72
2022/04/15 01:42:39;;;;;;;3.07;1.73;;;17.20;78.90;;;;;;2013355;28;20180;-73
2022/04/15 01:43:37;;;;;;;3.13;2.15;;;17.20;78.80;;;;;;2013149;28;20407;-72
2022/04/15 01:44:37;;;;;;;3.70;1.83;;;17.20;78.90;;;;;;2013214;28;20532;-73
2022/04/15 01:45:35;;;;;;;2.90;2.03;;;17.20;78.90;;;;;;2013252;28;20175;-72
2022/04/15 01:46:34;;;;;;;2.97;1.90;;;17.20;78.90;;;;;;2013078;28;20534;-72
2022/04/15 01:47:32;;;;;;;2.23;1.40;;;17.20;78.90;;;;;;2012550;28;20164;-72
2022/04/15 01:48:31;;;;;;;2.33;1.70;;;17.20;78.90;;;;;;2012602;28;20175;-72
2022/04/15 01:49:29;;;;;;;3.87;2.30;;;17.20;78.80;;;;;;2013135;28;20176;-72
2022/04/15 01:50:28;;;;;;;1.80;1.40;;;17.20;78.80;;;;;;2013295;28;20180;-72
2022/04/15 01:51:33;;;;;;;1.67;1.57;;;17.20;78.90;;;;;;2013277;28;20169;-72
2022/04/15 01:52:32;;;;;;;7.63;1.92;;;17.20;78.80;;;;;;2013316;28;20182;-72
2022/04/15 01:53:31;;;;;;;4.23;2.00;;;17.20;78.80;;;;;;2013396;28;20209;-73
2022/04/15 01:54:29;;;;;;;5.10;1.90;;;17.20;78.90;;;;;;2013005;28;20270;-74
2022/04/15 01:55:28;;;;;;;2.50;1.67;;;17.10;78.80;;;;;;2013163;28;20172;-72
2022/04/15 01:56:27;;;;;;;6.80;2.23;;;17.20;78.90;;;;;;2013037;28;20627;-73
2022/04/15 01:57:25;;;;;;;3.40;2.10;;;17.10;78.80;;;;;;2013124;28;20180;-72
2022/04/15 01:58:24;;;;;;;2.70;1.40;;;17.10;78.80;;;;;;2013298;28;20172;-72
2022/04/15 01:59:22;;;;;;;5.90;1.90;;;17.10;78.70;;;;;;2013073;28;20234;-72
2022/04/15 02:00:21;;;;;;;3.30;1.67;;;17.10;78.70;;;;;;2013205;28;20176;-72
2022/04/15 02:01:20;;;;;;;2.80;1.33;;;17.10;78.70;;;;;;2013157;28;20411;-72
2022/04/15 02:02:18;;;;;;;2.97;1.87;;;17.10;78.80;;;;;;2013160;28;20176;-72
2022/04/15 02:03:17;;;;;;;4.70;1.90;;;17.10;78.80;;;;;;2013144;28;20195;-72
2022/04/15 02:04:15;;;;;;;3.20;2.00;;;17.20;78.80;;;;;;2013138;28;20238;-72
2022/04/15 02:05:14;;;;;;;12.60;2.20;;;17.20;78.80;;;;;;2013011;28;20255;-72
2022/04/15 02:06:13;;;;;;;5.07;1.80;;;17.10;78.70;;;;;;2012904;28;20222;-72
2022/04/15 02:07:11;;;;;;;2.30;1.67;;;17.20;78.80;;;;;;2012999;28;20690;-72
2022/04/15 02:08:10;;;;;;;3.03;2.30;;;17.10;78.80;;;;;;2013053;28;20257;-72
2022/04/15 02:09:08;;;;;;;2.63;2.00;;;17.10;78.70;;;;;;2013093;28;20218;-72
2022/04/15 02:10:07;;;;;;;4.90;2.37;;;17.10;78.80;;;;;;2012873;28;20545;-73
2022/04/15 02:11:06;;;;;;;5.03;1.95;;;17.10;78.70;;;;;;2012950;28;20161;-74
2022/04/15 02:12:05;;;;;;;4.27;2.27;;;17.10;78.70;;;;;;2012984;28;20176;-71
2022/04/15 02:13:03;;;;;;;5.28;2.67;;;17.10;78.80;;;;;;2012846;28;20545;-73
2022/04/15 02:14:02;;;;;;;2.10;1.60;;;17.20;78.80;;;;;;2012823;28;20204;-72
2022/04/15 02:15:01;;;;;;;3.63;1.80;;;17.10;78.70;;;;;;2012923;28;20235;-72
2022/04/15 02:16:00;;;;;;;4.90;1.80;;;17.20;78.80;;;;;;2013031;28;20636;-72
2022/04/15 02:16:59;;;;;;;2.27;1.90;;;17.10;78.70;;;;;;2012777;28;20248;-72
2022/04/15 02:17:58;;;;;;;4.97;1.67;;;17.10;78.70;;;;;;2012987;28;20307;-72
2022/04/15 02:18:56;;;;;;;3.70;1.93;;;17.10;78.70;;;;;;2013099;28;20780;-72
2022/04/15 02:19:55;;;;;;;3.37;1.93;;;17.10;78.70;;;;;;2012912;28;20483;-71
2022/04/15 02:20:53;;;;;;;2.53;1.67;;;17.10;78.70;;;;;;2012986;28;20176;-72
2022/04/15 02:21:52;;;;;;;4.07;1.80;;;17.10;78.70;;;;;;2012808;28;20176;-72
2022/04/15 02:22:52;;;;;;;4.53;2.50;;;17.10;78.80;;;;;;2013003;28;20213;-73
2022/04/15 02:23:50;;;;;;;3.78;1.85;;;17.10;78.80;;;;;;2012906;28;20319;-73
2022/04/15 02:24:49;;;;;;;7.60;1.67;;;17.10;78.80;;;;;;2013070;28;20177;-72
2022/04/15 02:25:47;;;;;;;5.10;2.23;;;17.10;78.80;;;;;;2012915;28;20518;-72
2022/04/15 02:26:46;;;;;;;3.33;1.83;;;17.10;78.80;;;;;;2012948;28;20227;-72
2022/04/15 02:27:44;;;;;;;3.93;2.20;;;17.10;78.80;;;;;;2012870;28;20264;-72
2022/04/15 02:28:43;;;;;;;2.30;1.87;;;17.10;78.80;;;;;;2013047;28;20220;-72
2022/04/15 02:29:42;;;;;;;3.97;1.97;;;17.10;79.20;;;;;;2012274;28;20225;-73
2022/04/15 02:30:41;;;;;;;2.67;1.90;;;17.10;78.80;;;;;;2012396;28;20530;-73
2022/04/15 02:31:39;;;;;;;2.53;2.17;;;17.10;78.90;;;;;;2011861;28;20176;-73
2022/04/15 02:32:38;;;;;;;3.13;2.13;;;17.10;78.80;;;;;;2012486;28;20167;-72
2022/04/15 02:33:37;;;;;;;3.80;2.30;;;17.10;78.80;;;;;;2012945;28;20187;-72
2022/04/15 02:34:35;;;;;;;3.00;1.53;;;17.10;78.80;;;;;;2012832;28;20200;-73
2022/04/15 02:35:34;;;;;;;7.13;2.67;;;17.10;78.90;;;;;;2012687;28;20172;-73
2022/04/15 02:36:32;;;;;;;3.87;1.93;;;17.10;78.90;;;;;;2012692;28;20194;-73
2022/04/15 02:37:32;;;;;;;3.33;1.80;;;17.10;78.90;;;;;;2012879;28;20187;-73
2022/04/15 02:38:30;;;;;;;2.28;1.85;;;17.10;78.90;;;;;;2012312;28;20667;-73
2022/04/15 02:39:29;;;;;;;2.53;2.10;;;17.10;78.80;;;;;;2012680;28;20212;-73
2022/04/15 02:40:28;;;;;;;5.13;2.47;;;17.10;78.80;;;;;;2012712;28;20179;-73
2022/04/15 02:41:26;;;;;;;4.20;1.93;;;17.10;79.40;;;;;;2012833;28;20259;-73
2022/04/15 02:42:26;;;;;;;3.10;1.97;;;17.00;78.70;;;;;;2012853;28;20176;-73
2022/04/15 02:43:31;;;;;;;3.03;2.05;;;17.10;79.40;;;;;;2012012;28;20176;-73
2022/04/15 02:44:30;;;;;;;2.70;2.00;;;17.10;78.90;;;;;;2012218;28;20160;-73
2022/04/15 02:45:29;;;;;;;3.43;2.23;;;17.10;78.80;;;;;;2012771;28;20176;-73
2022/04/15 02:46:28;;;;;;;2.92;1.80;;;17.10;78.80;;;;;;2012716;28;20961;-73
2022/04/15 02:47:29;;;;;;;2.43;1.73;;;17.10;78.80;;;;;;2012972;28;20250;-72
2022/04/15 02:48:28;;;;;;;5.05;2.30;;;17.10;78.70;;;;;;2012560;28;20189;-72
2022/04/15 02:49:27;;;;;;;3.92;2.20;;;17.10;78.80;;;;;;2012715;28;20586;-72
2022/04/15 02:50:28;;;;;;;3.15;2.05;;;17.10;78.80;;;;;;2012626;28;20665;-72
2022/04/15 02:51:27;;;;;;;2.70;2.10;;;17.10;78.80;;;;;;2012687;28;20234;-72
2022/04/15 02:52:26;;;;;;;3.85;2.35;;;17.10;78.80;;;;;;2012621;28;20196;-73
2022/04/15 02:53:25;;;;;;;8.07;2.97;;;17.10;78.90;;;;;;2012622;28;20575;-73
2022/04/15 02:54:24;;;;;;;7.77;2.13;;;17.10;78.90;;;;;;2012663;28;20648;-72
2022/04/15 02:55:22;;;;;;;2.43;2.17;;;17.10;78.80;;;;;;2012609;28;20404;-72
2022/04/15 02:56:21;;;;;;;5.50;2.40;;;17.10;78.80;;;;;;2012568;28;20180;-72
2022/04/15 02:57:19;;;;;;;5.87;2.40;;;17.10;78.80;;;;;;2012746;28;20176;-72
2022/04/15 02:58:19;;;;;;;2.80;1.67;;;17.10;78.90;;;;;;2011946;28;20275;-72
2022/04/15 02:59:17;;;;;;;3.72;1.83;;;17.10;78.90;;;;;;2012064;28;20172;-72
2022/04/15 03:00:16;;;;;;;4.03;2.00;;;17.10;78.80;;;;;;2012757;28;20176;-72
2022/04/15 03:01:14;;;;;;;3.93;1.90;;;17.10;78.80;;;;;;2012578;28;20204;-72
2022/04/15 03:02:14;;;;;;;3.47;2.37;;;17.10;78.80;;;;;;2012653;28;20438;-72
2022/04/15 03:03:12;;;;;;;3.35;1.83;;;17.00;78.60;;;;;;2012673;28;20176;-73
2022/04/15 03:04:11;;;;;;;6.60;2.00;;;17.10;78.80;;;;;;2012647;28;20184;-73
2022/04/15 03:05:09;;;;;;;2.60;2.23;;;17.10;78.80;;;;;;2012551;28;20180;-72
2022/04/15 03:06:08;;;;;;;2.47;1.80;;;17.10;78.80;;;;;;2012710;28;20196;-74
2022/04/15 03:07:06;;;;;;;3.00;1.80;;;17.10;78.90;;;;;;2012850;28;20670;-73
2022/04/15 03:08:05;;;;;;;2.27;1.70;;;17.00;78.80;;;;;;2013392;28;20204;-73
2022/04/15 03:09:04;;;;;;;3.22;2.00;;;17.10;78.90;;;;;;2013246;28;20219;-73
2022/04/15 03:10:04;;;;;;;3.67;1.97;;;17.10;78.90;;;;;;2012661;28;20588;-73
2022/04/15 03:11:03;;;;;;;6.75;2.40;;;17.10;78.80;;;;;;2012393;28;20204;-73
2022/04/15 03:12:01;;;;;;;1.90;1.70;;;17.00;78.80;;;;;;2011964;28;20534;-73
2022/04/15 03:13:01;;;;;;;3.10;1.90;;;17.10;78.80;;;;;;2011896;28;20183;-73
2022/04/15 03:14:01;;;;;;;4.40;1.80;;;17.10;78.90;;;;;;2012553;28;20196;-73
2022/04/15 03:14:59;;;;;;;4.20;2.30;;;17.10;78.80;;;;;;2012716;28;20292;-73
2022/04/15 03:15:58;;;;;;;2.23;1.70;;;17.10;78.80;;;;;;2012581;28;20688;-73
2022/04/15 03:16:56;;;;;;;4.50;2.20;;;17.10;78.80;;;;;;2012484;28;20530;-73
2022/04/15 03:17:55;;;;;;;2.33;2.00;;;17.00;78.70;;;;;;2012463;28;20593;-74
2022/04/15 03:18:54;;;;;;;2.80;1.83;;;17.00;78.70;;;;;;2012536;28;20172;-72
2022/04/15 03:19:52;;;;;;;1.73;1.63;;;17.00;78.70;;;;;;2018959;28;20163;-72
2022/04/15 03:20:51;;;;;;;3.53;2.17;;;17.00;79.20;;;;;;2021421;28;20439;-72
2022/04/15 03:21:51;;;;;;;5.93;2.20;;;17.00;78.70;;;;;;2021864;28;20188;-72
2022/04/15 03:22:49;;;;;;;4.18;2.05;;;17.00;78.70;;;;;;2021705;28;20184;-73
2022/04/15 03:23:48;;;;;;;3.60;2.37;;;17.00;78.70;;;;;;2018319;28;20214;-71
2022/04/15 03:24:48;;;;;;;2.73;2.00;;;17.00;78.70;;;;;;2015620;28;20631;-72
2022/04/15 03:25:48;;;;;;;2.53;1.73;;;17.00;78.70;;;;;;2013332;28;20165;-72
2022/04/15 03:26:47;;;;;;;3.67;2.08;;;17.10;78.80;;;;;;2012799;28;20199;-72
2022/04/15 03:27:46;;;;;;;3.10;1.70;;;17.10;78.80;;;;;;2013010;28;20179;-72
2022/04/15 03:28:45;;;;;;;2.75;2.05;;;17.00;78.70;;;;;;2013034;28;20569;-72
2022/04/15 03:29:44;;;;;;;8.63;2.47;;;17.00;78.70;;;;;;2012801;28;20172;-72
2022/04/15 03:30:42;;;;;;;5.07;2.33;;;17.00;78.80;;;;;;2012611;28;20527;-72
2022/04/15 03:31:41;;;;;;;4.00;2.27;;;17.10;78.80;;;;;;2012472;28;20234;-73
2022/04/15 03:32:50;;;;;;;5.03;2.17;;;17.00;78.70;;;;;;2012603;28;20203;-72
2022/04/15 03:33:49;;;;;;;5.18;2.33;;;17.00;78.70;;;;;;2012492;28;20172;-72
2022/04/15 03:34:48;;;;;;;5.60;2.60;;;17.00;78.80;;;;;;2012539;28;20196;-72
2022/04/15 03:35:46;;;;;;;5.30;2.27;;;17.00;78.80;;;;;;2012612;28;20191;-72
2022/04/15 03:36:45;;;;;;;;;;;17.10;78.80;;;;;;2012911;28;20192;-72
2022/04/15 03:37:44;;;;;;;;;;;17.00;78.80;;;;;;2012983;28;20253;-73
2022/04/15 03:38:42;;;;;;;;;;;17.00;78.80;;;;;;2012941;28;19952;-72
2022/04/15 03:39:41;;;;;;;;;;;17.00;78.80;;;;;;2012927;28;19913;-72
2022/04/15 03:40:39;;;;;;;;;;;17.00;78.80;;;;;;2012336;28;19939;-72
2022/04/15 03:41:38;;;;;;;;;;;17.00;78.80;;;;;;2012451;28;19917;-73
2022/04/15 03:42:54;;;;;;;;;;;17.00;78.80;;;;;;2012949;28;19909;-74
2022/04/15 03:43:52;;;;;;;;;;;17.10;78.90;;;;;;2012897;28;20395;-73
2022/04/15 03:44:51;;;;;;;;;;;17.00;78.90;;;;;;2012972;28;20004;-73
2022/04/15 03:45:49;;;;;;;;;;;17.10;79.00;;;;;;2012822;28;19916;-73
2022/04/15 03:46:47;;;;;;;;;;;17.00;78.80;;;;;;2012919;28;19932;-73
2022/04/15 03:47:46;;;;;;;;;;;17.00;78.80;;;;;;2012917;28;19947;-72
2022/04/15 03:48:45;;;;;;;;;;;17.00;78.80;;;;;;2012931;28;20311;-73
2022/04/15 03:49:45;;;;;;;;;;;17.10;78.90;;;;;;2012860;28;20281;-73
2022/04/15 03:50:44;;;;;;;;;;;17.00;78.80;;;;;;2014500;28;19915;-73
2022/04/15 03:51:42;;;;;;;;;;;17.00;78.80;;;;;;2014496;28;20360;-73
2022/04/15 03:52:46;;;;;;;;;;;17.00;78.80;;;;;;2014626;28;19913;-73
2022/04/15 03:53:44;;;;;;;;;;;17.10;78.90;;;;;;2014584;28;19979;-72
2022/04/15 03:54:42;;;;;;;;;;;17.00;78.90;;;;;;2014249;28;19974;-73
2022/04/15 03:55:41;;;;;;;;;;;17.10;79.00;;;;;;2014444;28;19912;-73
2022/04/15 03:56:39;;;;;;;;;;;17.00;78.80;;;;;;2014335;28;20214;-73
2022/04/15 03:57:38;;;;;;;;;;;17.00;78.80;;;;;;2014460;28;19909;-73
2022/04/15 03:58:36;;;;;;;;;;;17.00;78.80;;;;;;2014490;28;19913;-72
2022/04/15 03:59:35;;;;;;;;;;;17.00;78.80;;;;;;2013814;28;20404;-72
2022/04/15 04:00:33;;;;;;;;;;;17.00;78.80;;;;;;2013816;28;19909;-73
2022/04/15 04:01:32;;;;;;;;;;;17.00;78.80;;;;;;2014455;28;19944;-73
2022/04/15 04:02:30;;;;;;;;;;;17.00;78.80;;;;;;2014401;28;19932;-73
2022/04/15 04:03:29;;;;;;;;;;;17.00;78.90;;;;;;2014333;28;19909;-73
2022/04/15 04:04:28;;;;;;;;;;;17.00;78.90;;;;;;2014287;28;19909;-73
2022/04/15 04:05:26;;;;;;;;;;;17.00;78.90;;;;;;2014221;28;19963;-72
2022/04/15 04:06:25;;;;;;;;;;;17.00;78.80;;;;;;2014352;28;20253;-73
2022/04/15 04:07:23;;;;;;;;;;;17.10;78.90;;;;;;2014297;28;20287;-73
2022/04/15 04:08:22;;;;;;;;;;;17.00;78.90;;;;;;2014315;28;20011;-73
2022/04/15 04:09:20;;;;;;;;;;;17.10;79.00;;;;;;2013671;28;19968;-73
2022/04/15 04:10:19;;;;;;;;;;;17.00;78.80;;;;;;2013635;28;19980;-74
2022/04/15 04:11:17;;;;;;;;;;;17.00;78.80;;;;;;2014477;28;20068;-73
2022/04/15 04:12:16;;;;;;;;;;;17.00;78.80;;;;;;2014268;28;20103;-72
2022/04/15 04:13:14;;;;;;;;;;;17.00;78.80;;;;;;2014342;28;19956;-73
2022/04/15 04:14:12;;;;;;;;;;;17.00;78.90;;;;;;2014591;28;19912;-73
2022/04/15 04:15:12;;;;;;;;;;;17.00;78.80;;;;;;2014446;28;20280;-72
2022/04/15 04:16:13;;;;;;;;;;;17.00;78.80;;;;;;2013530;28;19977;-73
2022/04/15 04:17:12;;;;;;;;;;;17.00;78.80;;;;;;2013781;28;19920;-75
2022/04/15 04:18:13;;;;;;;;;;;17.00;78.80;;;;;;2014247;28;19945;-73
2022/04/15 04:19:12;;;;;;;;;;;17.00;78.90;;;;;;2014345;28;20364;-73
2022/04/15 04:20:12;;;;;;;;;;;17.00;78.90;;;;;;2014078;28;19909;-73
2022/04/15 04:21:10;;;;;;;;;;;17.00;78.80;;;;;;2013578;28;20424;-73
2022/04/15 04:22:09;;;;;;;;;;;17.00;78.80;;;;;;2013697;28;19909;-73
2022/04/15 04:23:07;;;;;;;;;;;17.00;78.90;;;;;;2014184;28;19952;-73
2022/04/15 04:24:06;;;;;;;;;;;17.00;78.90;;;;;;2013525;28;19917;-73
2022/04/15 04:25:08;;;;;;;;;;;17.20;79.10;;;;;;2013807;28;19916;-73
2022/04/15 04:26:07;;;;;;;;;;;17.00;78.80;;;;;;2014230;28;19913;-73
2022/04/15 04:27:05;;;;;;;;;;;17.00;78.90;;;;;;2013461;28;19909;-73
2022/04/15 04:28:04;;;;;;;;;;;17.00;79.60;;;;;;2013654;28;20293;-73
2022/04/15 04:29:02;;;;;;;;;;;17.00;78.90;;;;;;2014206;28;20399;-74
2022/04/15 04:30:01;;;;;;;;;;;17.00;78.90;;;;;;2014102;28;20015;-73
2022/04/15 04:30:59;;;;;;;;;;;17.00;78.90;;;;;;2013957;28;19913;-72
2022/04/15 04:31:58;;;;;;;;;;;17.00;78.90;;;;;;2014248;28;20388;-72
2022/04/15 04:32:59;;;;;;;;;;;17.00;78.90;;;;;;2013596;28;20482;-73
2022/04/15 04:33:57;;;;;;;;;;;17.00;79.00;;;;;;2013775;28;19913;-73
2022/04/15 04:34:56;;;;;;;;;;;17.00;79.00;;;;;;2013371;28;20257;-74
2022/04/15 04:35:56;;;;;;;;;;;17.00;78.90;;;;;;2013609;28;19909;-74
2022/04/15 04:36:54;;;;;;;;;;;17.00;78.90;;;;;;2014298;28;20284;-72
2022/04/15 04:37:53;;;;;;;;;;;17.00;78.90;;;;;;2014298;28;19909;-73
2022/04/15 04:38:51;;;;;;;;;;;17.00;79.00;;;;;;2014545;28;19995;-73
2022/04/15 04:39:49;;;;;;;;;;;17.00;78.90;;;;;;2014212;28;20062;-73
2022/04/15 04:40:48;;;;;;;;;;;17.00;78.90;;;;;;2014119;28;19976;-73
2022/04/15 04:41:47;;;;;;;;;;;17.00;79.00;;;;;;2014184;28;20352;-71
2022/04/15 04:42:46;;;;;;;;;;;17.00;78.90;;;;;;2014206;28;20286;-73
2022/04/15 04:43:46;;;;;;;;;;;17.00;78.90;;;;;;2013815;28;19913;-74
2022/04/15 04:44:44;;;;;;;;;;;17.00;79.00;;;;;;2014253;28;20275;-73
2022/04/15 04:45:44;;;;;;;;;;;17.00;79.00;;;;;;2014382;28;19909;-73
2022/04/15 04:46:42;;;;;;;;;;;17.00;79.00;;;;;;2014067;28;19939;-72
2022/04/15 04:47:42;;;;;;;;;;;17.00;78.90;;;;;;2014098;28;19909;-73
2022/04/15 04:48:41;;;;;;;;;;;17.00;79.00;;;;;;2014173;28;19916;-74
2022/04/15 04:49:39;;;;;;;;;;;17.00;79.00;;;;;;2014127;28;20354;-73
2022/04/15 04:50:38;;;;;;;;;;;17.00;79.00;;;;;;2014098;28;20368;-72
2022/04/15 04:51:36;;;;;;;;;;;17.00;79.00;;;;;;2014057;28;20391;-72
2022/04/15 04:52:35;;;;;;;;;;;17.00;79.00;;;;;;2014017;28;20336;-72
2022/04/15 04:53:34;;;;;;;;;;;17.00;79.00;;;;;;2013948;28;19917;-73
2022/04/15 04:54:32;;;;;;;;;;;17.00;79.00;;;;;;2013854;28;19921;-73
2022/04/15 04:55:31;;;;;;;;;;;17.00;79.00;;;;;;2014160;28;20272;-72
2022/04/15 04:56:29;;;;;;;;;;;17.00;79.00;;;;;;2014032;28;19971;-72
2022/04/15 04:57:27;;;;;;;;;;;17.00;79.00;;;;;;2013904;28;19968;-72
2022/04/15 04:58:26;;;;;;;;;;;17.00;79.00;;;;;;2014006;28;19937;-73
2022/04/15 04:59:25;;;;;;;;;;;17.00;79.00;;;;;;2013243;28;19952;-72
2022/04/15 05:00:23;;;;;;;;;;;17.00;79.00;;;;;;2013479;28;19921;-72
2022/04/15 05:01:22;;;;;;;;;;;17.00;79.00;;;;;;2013779;28;19924;-72
2022/04/15 05:02:20;;;;;;;;;;;17.00;79.10;;;;;;2013469;28;19913;-73
2022/04/15 05:03:19;;;;;;;;;;;17.00;79.10;;;;;;2013971;28;19909;-72
2022/04/15 05:04:17;;;;;;;;;;;17.00;79.00;;;;;;2013304;28;20477;-72
2022/04/15 05:05:16;;;;;;;;;;;17.00;79.00;;;;;;2013174;28;20355;-73
2022/04/15 05:06:14;;;;;;;;;;;17.00;79.00;;;;;;2013930;28;19909;-72
2022/04/15 05:07:14;;;;;;;;;;;17.00;79.10;;;;;;2013843;28;20319;-73
2022/04/15 05:08:12;;;;;;;;;;;17.00;79.00;;;;;;2013923;28;19927;-73
2022/04/15 05:09:12;;;;;;;;;;;17.00;79.00;;;;;;2013930;28;20007;-73
2022/04/15 05:10:11;;;;;;;;;;;17.10;79.20;;;;;;2013708;28;19939;-72
2022/04/15 05:11:09;;;;;;;;;;;17.00;79.00;;;;;;2013902;28;19967;-72
2022/04/15 05:12:08;;;;;;;;;;;17.00;79.00;;;;;;2013970;28;19909;-72
2022/04/15 05:13:06;;;;;;;;;;;17.00;79.00;;;;;;2014024;28;20365;-72
2022/04/15 05:14:05;;;;;;;;;;;17.00;79.00;;;;;;2013973;28;19916;-72
2022/04/15 05:15:06;;;;;;;;;;;17.00;79.00;;;;;;2014010;28;19956;-72
2022/04/15 05:16:04;;;;;;;;;;;17.00;79.10;;;;;;2013809;28;19909;-73
2022/04/15 05:17:04;;;;;;;;;;;17.00;79.10;;;;;;2013719;28;19909;-73
2022/04/15 05:18:02;;;;;;;;;;;17.00;79.00;;;;;;2013929;28;19917;-73
2022/04/15 05:19:01;;;;;;;;;;;17.00;79.00;;;;;;2013845;28;19956;-73
2022/04/15 05:19:59;;;;;;;;;;;17.00;79.00;;;;;;2013987;28;19917;-73